sensor_id;sensor_type;location;lat;lon;timestamp;P1;durP1;ratioP1;P2;durP2;ratioP2
78302;SDS011;67559;24.140;-110.296;2023-11-19T00:00:39;14.30;;;2.05;;
78302;SDS011;67559;24.140;-110.296;2023-11-19T00:03:09;15.65;;;2.20;;
78302;SDS011;67559;24.140;-110.296;2023-11-19T00:05:41;50.50;;;2.88;;
78302;SDS011;67559;24.140;-110.296;2023-11-19T00:08:12;20.40;;;2.33;;
78302;SDS011;67559;24.140;-110.296;2023-11-19T00:10:42;12.50;;;2.50;;
78302;SDS011;67559;24.140;-110.296;2023-11-19T00:15:45;10.85;;;2.40;;
78302;SDS011;67559;24.140;-110.296;2023-11-19T00:18:15;8.50;;;1.75;;
78302;SDS011;67559;24.140;-110.296;2023-11-19T00:20:46;8.38;;;2.30;;
78302;SDS011;67559;24.140;-110.296;2023-11-19T00:23:47;15.80;;;3.15;;
78302;SDS011;67559;24.140;-110.296;2023-11-19T00:26:17;12.35;;;2.63;;
78302;SDS011;67559;24.140;-110.296;2023-11-19T00:28:48;14.57;;;2.50;;
78302;SDS011;67559;24.140;-110.296;2023-11-19T00:31:20;17.77;;;2.47;;
78302;SDS011;67559;24.140;-110.296;2023-11-19T00:33:49;11.57;;;2.40;;
78302;SDS011;67559;24.140;-110.296;2023-11-19T00:36:19;19.88;;;2.58;;
78302;SDS011;67559;24.140;-110.296;2023-11-19T00:38:51;18.15;;;2.55;;
78302;SDS011;67559;24.140;-110.296;2023-11-19T00:41:23;15.05;;;2.95;;
78302;SDS011;67559;24.140;-110.296;2023-11-19T00:43:53;10.77;;;2.67;;
78302;SDS011;67559;24.140;-110.296;2023-11-19T00:46:26;19.58;;;4.20;;
78302;SDS011;67559;24.140;-110.296;2023-11-19T00:48:56;24.38;;;4.13;;
78302;SDS011;67559;24.140;-110.296;2023-11-19T00:51:28;11.98;;;3.05;;
78302;SDS011;67559;24.140;-110.296;2023-11-19T00:53:58;16.48;;;3.00;;
78302;SDS011;67559;24.140;-110.296;2023-11-19T00:56:28;16.35;;;2.88;;
78302;SDS011;67559;24.140;-110.296;2023-11-19T00:58:58;18.35;;;2.65;;
78302;SDS011;67559;24.140;-110.296;2023-11-19T01:01:29;22.25;;;2.88;;
78302;SDS011;67559;24.140;-110.296;2023-11-19T01:03:59;11.20;;;2.30;;
78302;SDS011;67559;24.140;-110.296;2023-11-19T01:06:30;12.38;;;2.53;;
78302;SDS011;67559;24.140;-110.296;2023-11-19T01:09:00;17.77;;;2.85;;
78302;SDS011;67559;24.140;-110.296;2023-11-19T01:11:30;21.08;;;2.78;;
78302;SDS011;67559;24.140;-110.296;2023-11-19T01:14:00;12.43;;;2.45;;
78302;SDS011;67559;24.140;-110.296;2023-11-19T01:16:30;13.82;;;2.83;;
78302;SDS011;67559;24.140;-110.296;2023-11-19T01:21:33;17.40;;;3.03;;
78302;SDS011;67559;24.140;-110.296;2023-11-19T01:24:03;15.48;;;3.08;;
78302;SDS011;67559;24.140;-110.296;2023-11-19T01:26:39;12.93;;;2.55;;
78302;SDS011;67559;24.140;-110.296;2023-11-19T01:29:20;16.60;;;3.10;;
78302;SDS011;67559;24.140;-110.296;2023-11-19T01:31:51;10.93;;;2.63;;
78302;SDS011;67559;24.140;-110.296;2023-11-19T01:34:21;15.48;;;2.90;;
78302;SDS011;67559;24.140;-110.296;2023-11-19T01:36:51;20.45;;;2.88;;
78302;SDS011;67559;24.140;-110.296;2023-11-19T01:39:21;19.08;;;2.90;;
78302;SDS011;67559;24.140;-110.296;2023-11-19T01:41:50;21.52;;;3.40;;
78302;SDS011;67559;24.140;-110.296;2023-11-19T01:44:21;18.85;;;3.00;;
78302;SDS011;67559;24.140;-110.296;2023-11-19T01:49:23;23.98;;;3.15;;
78302;SDS011;67559;24.140;-110.296;2023-11-19T01:51:54;15.45;;;2.60;;
78302;SDS011;67559;24.140;-110.296;2023-11-19T01:54:26;16.40;;;3.75;;
78302;SDS011;67559;24.140;-110.296;2023-11-19T01:56:57;12.93;;;2.70;;
78302;SDS011;67559;24.140;-110.296;2023-11-19T02:02:01;12.68;;;2.92;;
78302;SDS011;67559;24.140;-110.296;2023-11-19T02:04:30;9.35;;;2.08;;
78302;SDS011;67559;24.140;-110.296;2023-11-19T02:07:01;14.75;;;2.67;;
78302;SDS011;67559;24.140;-110.296;2023-11-19T02:09:31;14.80;;;2.03;;
78302;SDS011;67559;24.140;-110.296;2023-11-19T02:12:02;13.90;;;2.45;;
78302;SDS011;67559;24.140;-110.296;2023-11-19T02:14:31;14.80;;;2.85;;
78302;SDS011;67559;24.140;-110.296;2023-11-19T02:17:02;13.45;;;3.25;;
78302;SDS011;67559;24.140;-110.296;2023-11-19T02:19:32;10.85;;;2.28;;
78302;SDS011;67559;24.140;-110.296;2023-11-19T02:22:01;11.50;;;2.55;;
78302;SDS011;67559;24.140;-110.296;2023-11-19T02:24:32;10.20;;;1.83;;
78302;SDS011;67559;24.140;-110.296;2023-11-19T02:27:07;12.27;;;2.45;;
78302;SDS011;67559;24.140;-110.296;2023-11-19T02:29:40;9.60;;;2.30;;
78302;SDS011;67559;24.140;-110.296;2023-11-19T02:32:10;14.57;;;2.22;;
78302;SDS011;67559;24.140;-110.296;2023-11-19T02:34:40;11.63;;;2.42;;
78302;SDS011;67559;24.140;-110.296;2023-11-19T02:37:10;17.48;;;3.08;;
78302;SDS011;67559;24.140;-110.296;2023-11-19T02:40:30;11.90;;;2.20;;
78302;SDS011;67559;24.140;-110.296;2023-11-19T02:42:51;8.40;;;2.00;;
78302;SDS011;67559;24.140;-110.296;2023-11-19T02:45:22;19.30;;;2.65;;
78302;SDS011;67559;24.140;-110.296;2023-11-19T02:47:52;17.05;;;2.58;;
78302;SDS011;67559;24.140;-110.296;2023-11-19T02:50:24;9.35;;;2.00;;
78302;SDS011;67559;24.140;-110.296;2023-11-19T02:52:55;16.88;;;2.53;;
78302;SDS011;67559;24.140;-110.296;2023-11-19T02:55:25;10.07;;;2.22;;
78302;SDS011;67559;24.140;-110.296;2023-11-19T02:58:04;14.35;;;2.80;;
78302;SDS011;67559;24.140;-110.296;2023-11-19T03:00:48;14.55;;;2.55;;
78302;SDS011;67559;24.140;-110.296;2023-11-19T03:03:24;16.40;;;2.55;;
78302;SDS011;67559;24.140;-110.296;2023-11-19T03:06:05;14.70;;;2.47;;
78302;SDS011;67559;24.140;-110.296;2023-11-19T03:08:47;11.70;;;1.85;;
78302;SDS011;67559;24.140;-110.296;2023-11-19T03:12:13;10.27;;;2.88;;
78302;SDS011;67559;24.140;-110.296;2023-11-19T03:21:45;18.17;;;2.45;;
78302;SDS011;67559;24.140;-110.296;2023-11-19T03:24:40;20.85;;;3.22;;
78302;SDS011;67559;24.140;-110.296;2023-11-19T03:27:08;17.58;;;3.08;;
78302;SDS011;67559;24.140;-110.296;2023-11-19T03:29:38;14.07;;;2.60;;
78302;SDS011;67559;24.140;-110.296;2023-11-19T03:32:17;13.65;;;2.75;;
78302;SDS011;67559;24.140;-110.296;2023-11-19T03:34:59;13.38;;;2.33;;
78302;SDS011;67559;24.140;-110.296;2023-11-19T03:37:30;19.52;;;3.40;;
78302;SDS011;67559;24.140;-110.296;2023-11-19T03:40:00;24.23;;;3.05;;
78302;SDS011;67559;24.140;-110.296;2023-11-19T03:42:30;12.70;;;3.10;;
78302;SDS011;67559;24.140;-110.296;2023-11-19T03:45:00;6.32;;;2.20;;
78302;SDS011;67559;24.140;-110.296;2023-11-19T03:47:31;10.65;;;2.50;;
78302;SDS011;67559;24.140;-110.296;2023-11-19T03:50:01;17.70;;;2.92;;
78302;SDS011;67559;24.140;-110.296;2023-11-19T03:52:31;20.75;;;3.05;;
78302;SDS011;67559;24.140;-110.296;2023-11-19T03:55:03;16.42;;;2.58;;
78302;SDS011;67559;24.140;-110.296;2023-11-19T03:57:33;22.27;;;3.40;;
78302;SDS011;67559;24.140;-110.296;2023-11-19T04:00:03;27.98;;;4.78;;
78302;SDS011;67559;24.140;-110.296;2023-11-19T04:02:41;32.70;;;5.95;;
78302;SDS011;67559;24.140;-110.296;2023-11-19T04:05:10;23.95;;;5.47;;
78302;SDS011;67559;24.140;-110.296;2023-11-19T04:07:40;22.95;;;6.35;;
78302;SDS011;67559;24.140;-110.296;2023-11-19T04:10:10;29.50;;;6.40;;
78302;SDS011;67559;24.140;-110.296;2023-11-19T04:12:43;35.28;;;6.15;;
78302;SDS011;67559;24.140;-110.296;2023-11-19T04:15:14;38.30;;;6.35;;
78302;SDS011;67559;24.140;-110.296;2023-11-19T04:17:43;40.50;;;6.50;;
78302;SDS011;67559;24.140;-110.296;2023-11-19T04:20:16;36.35;;;6.72;;
78302;SDS011;67559;24.140;-110.296;2023-11-19T04:22:46;23.58;;;5.70;;
78302;SDS011;67559;24.140;-110.296;2023-11-19T04:25:18;29.58;;;6.38;;
78302;SDS011;67559;24.140;-110.296;2023-11-19T04:27:49;27.30;;;4.82;;
78302;SDS011;67559;24.140;-110.296;2023-11-19T04:30:20;24.23;;;4.57;;
78302;SDS011;67559;24.140;-110.296;2023-11-19T04:32:50;29.55;;;4.80;;
78302;SDS011;67559;24.140;-110.296;2023-11-19T04:35:20;18.63;;;3.38;;
78302;SDS011;67559;24.140;-110.296;2023-11-19T04:37:51;20.65;;;3.42;;
78302;SDS011;67559;24.140;-110.296;2023-11-19T04:40:20;21.40;;;3.60;;
78302;SDS011;67559;24.140;-110.296;2023-11-19T04:45:22;51.78;;;5.95;;
78302;SDS011;67559;24.140;-110.296;2023-11-19T04:47:52;30.55;;;4.35;;
78302;SDS011;67559;24.140;-110.296;2023-11-19T04:50:22;33.92;;;3.78;;
78302;SDS011;67559;24.140;-110.296;2023-11-19T04:52:54;16.02;;;3.13;;
78302;SDS011;67559;24.140;-110.296;2023-11-19T04:55:24;21.75;;;3.10;;
78302;SDS011;67559;24.140;-110.296;2023-11-19T04:57:54;16.92;;;3.05;;
78302;SDS011;67559;24.140;-110.296;2023-11-19T05:02:59;14.65;;;2.53;;
78302;SDS011;67559;24.140;-110.296;2023-11-19T05:05:30;13.32;;;2.95;;
78302;SDS011;67559;24.140;-110.296;2023-11-19T05:08:00;9.23;;;2.38;;
78302;SDS011;67559;24.140;-110.296;2023-11-19T05:10:30;11.52;;;2.88;;
78302;SDS011;67559;24.140;-110.296;2023-11-19T05:13:00;8.52;;;2.28;;
78302;SDS011;67559;24.140;-110.296;2023-11-19T05:15:30;13.35;;;2.45;;
78302;SDS011;67559;24.140;-110.296;2023-11-19T05:18:03;13.43;;;2.08;;
78302;SDS011;67559;24.140;-110.296;2023-11-19T05:20:33;12.32;;;2.47;;
78302;SDS011;67559;24.140;-110.296;2023-11-19T05:23:03;15.90;;;3.00;;
78302;SDS011;67559;24.140;-110.296;2023-11-19T05:25:32;26.83;;;3.72;;
78302;SDS011;67559;24.140;-110.296;2023-11-19T05:28:02;28.60;;;3.72;;
78302;SDS011;67559;24.140;-110.296;2023-11-19T05:30:33;18.38;;;3.58;;
78302;SDS011;67559;24.140;-110.296;2023-11-19T05:33:55;21.95;;;3.88;;
78302;SDS011;67559;24.140;-110.296;2023-11-19T05:37:01;18.77;;;4.15;;
78302;SDS011;67559;24.140;-110.296;2023-11-19T05:40:19;16.85;;;4.07;;
78302;SDS011;67559;24.140;-110.296;2023-11-19T05:45:38;13.18;;;2.70;;
78302;SDS011;67559;24.140;-110.296;2023-11-19T05:48:08;16.73;;;3.13;;
78302;SDS011;67559;24.140;-110.296;2023-11-19T05:50:38;18.02;;;3.03;;
78302;SDS011;67559;24.140;-110.296;2023-11-19T05:53:08;14.07;;;3.25;;
78302;SDS011;67559;24.140;-110.296;2023-11-19T05:55:40;22.25;;;2.85;;
78302;SDS011;67559;24.140;-110.296;2023-11-19T05:58:26;19.52;;;2.88;;
78302;SDS011;67559;24.140;-110.296;2023-11-19T06:01:02;9.65;;;2.75;;
78302;SDS011;67559;24.140;-110.296;2023-11-19T06:03:34;38.78;;;4.22;;
78302;SDS011;67559;24.140;-110.296;2023-11-19T06:06:04;37.60;;;5.30;;
78302;SDS011;67559;24.140;-110.296;2023-11-19T06:08:34;15.27;;;3.63;;
78302;SDS011;67559;24.140;-110.296;2023-11-19T06:11:04;29.58;;;4.22;;
78302;SDS011;67559;24.140;-110.296;2023-11-19T06:13:35;53.47;;;5.57;;
78302;SDS011;67559;24.140;-110.296;2023-11-19T06:16:05;39.25;;;5.70;;
78302;SDS011;67559;24.140;-110.296;2023-11-19T06:18:36;27.52;;;4.82;;
78302;SDS011;67559;24.140;-110.296;2023-11-19T06:21:06;28.55;;;5.10;;
78302;SDS011;67559;24.140;-110.296;2023-11-19T06:23:36;23.48;;;4.68;;
78302;SDS011;67559;24.140;-110.296;2023-11-19T06:26:06;24.48;;;4.90;;
78302;SDS011;67559;24.140;-110.296;2023-11-19T06:28:36;24.20;;;4.85;;
78302;SDS011;67559;24.140;-110.296;2023-11-19T06:31:06;36.30;;;5.70;;
78302;SDS011;67559;24.140;-110.296;2023-11-19T06:33:35;24.45;;;4.60;;
78302;SDS011;67559;24.140;-110.296;2023-11-19T06:36:06;22.83;;;5.13;;
78302;SDS011;67559;24.140;-110.296;2023-11-19T06:38:36;20.95;;;4.43;;
78302;SDS011;67559;24.140;-110.296;2023-11-19T06:41:07;29.30;;;5.00;;
78302;SDS011;67559;24.140;-110.296;2023-11-19T06:43:38;13.63;;;4.22;;
78302;SDS011;67559;24.140;-110.296;2023-11-19T06:46:18;25.13;;;4.75;;
78302;SDS011;67559;24.140;-110.296;2023-11-19T06:48:51;28.65;;;5.00;;
78302;SDS011;67559;24.140;-110.296;2023-11-19T06:51:21;20.65;;;4.60;;
78302;SDS011;67559;24.140;-110.296;2023-11-19T06:53:52;20.20;;;3.92;;
78302;SDS011;67559;24.140;-110.296;2023-11-19T06:56:23;18.38;;;4.10;;
78302;SDS011;67559;24.140;-110.296;2023-11-19T06:58:53;25.83;;;4.65;;
78302;SDS011;67559;24.140;-110.296;2023-11-19T07:01:22;19.77;;;3.88;;
78302;SDS011;67559;24.140;-110.296;2023-11-19T07:06:25;29.33;;;4.72;;
78302;SDS011;67559;24.140;-110.296;2023-11-19T07:08:55;26.13;;;4.13;;
78302;SDS011;67559;24.140;-110.296;2023-11-19T07:11:25;22.92;;;4.60;;
78302;SDS011;67559;24.140;-110.296;2023-11-19T07:16:29;17.23;;;3.47;;
78302;SDS011;67559;24.140;-110.296;2023-11-19T07:18:59;15.70;;;3.60;;
78302;SDS011;67559;24.140;-110.296;2023-11-19T07:21:28;17.95;;;3.78;;
78302;SDS011;67559;24.140;-110.296;2023-11-19T07:24:00;25.08;;;3.80;;
78302;SDS011;67559;24.140;-110.296;2023-11-19T07:26:29;26.10;;;4.07;;
78302;SDS011;67559;24.140;-110.296;2023-11-19T07:28:59;21.13;;;4.07;;
78302;SDS011;67559;24.140;-110.296;2023-11-19T07:31:29;21.23;;;4.30;;
78302;SDS011;67559;24.140;-110.296;2023-11-19T07:33:59;20.38;;;3.75;;
78302;SDS011;67559;24.140;-110.296;2023-11-19T07:36:29;23.63;;;4.20;;
78302;SDS011;67559;24.140;-110.296;2023-11-19T07:38:59;22.98;;;3.88;;
78302;SDS011;67559;24.140;-110.296;2023-11-19T07:41:29;25.67;;;4.40;;
78302;SDS011;67559;24.140;-110.296;2023-11-19T07:43:59;18.50;;;4.25;;
78302;SDS011;67559;24.140;-110.296;2023-11-19T07:46:33;26.60;;;4.65;;
78302;SDS011;67559;24.140;-110.296;2023-11-19T07:49:04;22.40;;;4.25;;
78302;SDS011;67559;24.140;-110.296;2023-11-19T07:51:35;22.05;;;4.13;;
78302;SDS011;67559;24.140;-110.296;2023-11-19T07:54:05;24.33;;;3.90;;
78302;SDS011;67559;24.140;-110.296;2023-11-19T07:56:35;25.63;;;4.57;;
78302;SDS011;67559;24.140;-110.296;2023-11-19T07:59:05;35.33;;;4.63;;
78302;SDS011;67559;24.140;-110.296;2023-11-19T08:01:35;28.73;;;5.32;;
78302;SDS011;67559;24.140;-110.296;2023-11-19T08:04:05;51.70;;;22.58;;
78302;SDS011;67559;24.140;-110.296;2023-11-19T08:06:35;36.40;;;10.10;;
78302;SDS011;67559;24.140;-110.296;2023-11-19T08:09:07;23.30;;;6.53;;
78302;SDS011;67559;24.140;-110.296;2023-11-19T08:11:41;29.25;;;7.25;;
78302;SDS011;67559;24.140;-110.296;2023-11-19T08:14:11;28.45;;;6.90;;
78302;SDS011;67559;24.140;-110.296;2023-11-19T08:16:41;19.58;;;5.65;;
78302;SDS011;67559;24.140;-110.296;2023-11-19T08:19:10;23.17;;;6.22;;
78302;SDS011;67559;24.140;-110.296;2023-11-19T08:21:40;20.38;;;6.10;;
78302;SDS011;67559;24.140;-110.296;2023-11-19T08:24:10;23.67;;;5.82;;
78302;SDS011;67559;24.140;-110.296;2023-11-19T08:26:40;24.65;;;5.30;;
78302;SDS011;67559;24.140;-110.296;2023-11-19T08:29:10;23.38;;;5.18;;
78302;SDS011;67559;24.140;-110.296;2023-11-19T08:31:41;33.92;;;6.32;;
78302;SDS011;67559;24.140;-110.296;2023-11-19T08:34:11;25.55;;;5.63;;
78302;SDS011;67559;24.140;-110.296;2023-11-19T08:36:41;30.90;;;6.15;;
78302;SDS011;67559;24.140;-110.296;2023-11-19T08:39:16;20.52;;;4.45;;
78302;SDS011;67559;24.140;-110.296;2023-11-19T08:41:46;17.73;;;4.60;;
78302;SDS011;67559;24.140;-110.296;2023-11-19T08:44:16;15.52;;;4.32;;
78302;SDS011;67559;24.140;-110.296;2023-11-19T08:46:48;25.88;;;5.68;;
78302;SDS011;67559;24.140;-110.296;2023-11-19T08:49:18;16.88;;;4.38;;
78302;SDS011;67559;24.140;-110.296;2023-11-19T08:51:47;17.92;;;4.38;;
78302;SDS011;67559;24.140;-110.296;2023-11-19T08:54:17;22.55;;;4.15;;
78302;SDS011;67559;24.140;-110.296;2023-11-19T08:56:48;23.58;;;4.15;;
78302;SDS011;67559;24.140;-110.296;2023-11-19T08:59:18;20.13;;;4.07;;
78302;SDS011;67559;24.140;-110.296;2023-11-19T09:01:48;10.50;;;3.58;;
78302;SDS011;67559;24.140;-110.296;2023-11-19T09:04:18;22.60;;;4.75;;
78302;SDS011;67559;24.140;-110.296;2023-11-19T09:06:49;20.23;;;4.10;;
78302;SDS011;67559;24.140;-110.296;2023-11-19T09:09:19;14.02;;;4.65;;
78302;SDS011;67559;24.140;-110.296;2023-11-19T09:11:49;13.55;;;4.80;;
78302;SDS011;67559;24.140;-110.296;2023-11-19T09:14:19;13.80;;;3.80;;
78302;SDS011;67559;24.140;-110.296;2023-11-19T09:16:53;12.05;;;4.15;;
78302;SDS011;67559;24.140;-110.296;2023-11-19T09:19:23;15.73;;;3.75;;
78302;SDS011;67559;24.140;-110.296;2023-11-19T09:21:53;14.32;;;4.43;;
78302;SDS011;67559;24.140;-110.296;2023-11-19T09:24:23;25.73;;;6.00;;
78302;SDS011;67559;24.140;-110.296;2023-11-19T09:26:54;21.00;;;5.70;;
78302;SDS011;67559;24.140;-110.296;2023-11-19T09:29:24;16.77;;;4.55;;
78302;SDS011;67559;24.140;-110.296;2023-11-19T09:31:55;16.65;;;4.28;;
78302;SDS011;67559;24.140;-110.296;2023-11-19T09:34:24;12.68;;;4.45;;
78302;SDS011;67559;24.140;-110.296;2023-11-19T09:36:55;15.15;;;3.20;;
78302;SDS011;67559;24.140;-110.296;2023-11-19T09:39:25;9.23;;;2.95;;
78302;SDS011;67559;24.140;-110.296;2023-11-19T09:41:55;11.25;;;2.40;;
78302;SDS011;67559;24.140;-110.296;2023-11-19T09:44:25;10.13;;;2.60;;
78302;SDS011;67559;24.140;-110.296;2023-11-19T09:46:55;11.25;;;2.72;;
78302;SDS011;67559;24.140;-110.296;2023-11-19T09:49:26;9.77;;;2.40;;
78302;SDS011;67559;24.140;-110.296;2023-11-19T09:52:29;8.07;;;2.50;;
78302;SDS011;67559;24.140;-110.296;2023-11-19T09:55:37;9.05;;;2.60;;
78302;SDS011;67559;24.140;-110.296;2023-11-19T09:58:12;18.05;;;2.95;;
78302;SDS011;67559;24.140;-110.296;2023-11-19T10:00:43;12.15;;;2.72;;
78302;SDS011;67559;24.140;-110.296;2023-11-19T10:03:13;13.93;;;3.45;;
78302;SDS011;67559;24.140;-110.296;2023-11-19T10:05:43;10.70;;;2.75;;
78302;SDS011;67559;24.140;-110.296;2023-11-19T10:08:13;9.75;;;3.22;;
78302;SDS011;67559;24.140;-110.296;2023-11-19T10:10:44;11.70;;;3.20;;
78302;SDS011;67559;24.140;-110.296;2023-11-19T10:13:14;6.40;;;2.38;;
78302;SDS011;67559;24.140;-110.296;2023-11-19T10:15:44;10.38;;;2.63;;
78302;SDS011;67559;24.140;-110.296;2023-11-19T10:18:14;9.55;;;2.92;;
78302;SDS011;67559;24.140;-110.296;2023-11-19T10:20:44;8.57;;;2.38;;
78302;SDS011;67559;24.140;-110.296;2023-11-19T10:23:14;10.55;;;2.90;;
78302;SDS011;67559;24.140;-110.296;2023-11-19T10:25:44;22.77;;;3.45;;
78302;SDS011;67559;24.140;-110.296;2023-11-19T10:28:18;12.82;;;2.60;;
78302;SDS011;67559;24.140;-110.296;2023-11-19T10:30:48;11.60;;;2.72;;
78302;SDS011;67559;24.140;-110.296;2023-11-19T10:33:23;10.00;;;2.33;;
78302;SDS011;67559;24.140;-110.296;2023-11-19T10:35:54;12.45;;;3.25;;
78302;SDS011;67559;24.140;-110.296;2023-11-19T10:38:25;8.15;;;2.40;;
78302;SDS011;67559;24.140;-110.296;2023-11-19T10:40:55;9.98;;;2.75;;
78302;SDS011;67559;24.140;-110.296;2023-11-19T10:43:26;15.13;;;3.05;;
78302;SDS011;67559;24.140;-110.296;2023-11-19T10:46:08;9.60;;;3.30;;
78302;SDS011;67559;24.140;-110.296;2023-11-19T10:48:40;20.30;;;4.25;;
78302;SDS011;67559;24.140;-110.296;2023-11-19T10:51:10;11.88;;;3.83;;
78302;SDS011;67559;24.140;-110.296;2023-11-19T10:53:43;10.88;;;3.65;;
78302;SDS011;67559;24.140;-110.296;2023-11-19T10:56:14;21.83;;;3.88;;
78302;SDS011;67559;24.140;-110.296;2023-11-19T10:58:46;16.67;;;3.92;;
78302;SDS011;67559;24.140;-110.296;2023-11-19T11:01:19;21.40;;;3.63;;
78302;SDS011;67559;24.140;-110.296;2023-11-19T11:03:50;14.05;;;3.65;;
78302;SDS011;67559;24.140;-110.296;2023-11-19T11:06:21;15.85;;;4.00;;
78302;SDS011;67559;24.140;-110.296;2023-11-19T11:08:52;22.70;;;3.28;;
78302;SDS011;67559;24.140;-110.296;2023-11-19T11:11:22;18.50;;;3.92;;
78302;SDS011;67559;24.140;-110.296;2023-11-19T11:13:53;18.42;;;3.53;;
78302;SDS011;67559;24.140;-110.296;2023-11-19T11:16:24;16.73;;;3.92;;
78302;SDS011;67559;24.140;-110.296;2023-11-19T11:18:55;15.48;;;3.10;;
78302;SDS011;67559;24.140;-110.296;2023-11-19T11:21:26;12.93;;;3.13;;
78302;SDS011;67559;24.140;-110.296;2023-11-19T11:24:07;14.80;;;2.92;;
78302;SDS011;67559;24.140;-110.296;2023-11-19T11:31:59;15.43;;;3.28;;
78302;SDS011;67559;24.140;-110.296;2023-11-19T11:37:18;13.90;;;3.35;;
78302;SDS011;67559;24.140;-110.296;2023-11-19T11:39:51;15.52;;;3.35;;
78302;SDS011;67559;24.140;-110.296;2023-11-19T11:50:13;20.40;;;3.78;;
78302;SDS011;67559;24.140;-110.296;2023-11-19T11:55:35;21.45;;;4.43;;
78302;SDS011;67559;24.140;-110.296;2023-11-19T11:58:06;14.60;;;2.70;;
78302;SDS011;67559;24.140;-110.296;2023-11-19T12:00:40;12.55;;;3.42;;
78302;SDS011;67559;24.140;-110.296;2023-11-19T12:03:10;19.27;;;3.33;;
78302;SDS011;67559;24.140;-110.296;2023-11-19T12:05:42;13.30;;;3.22;;
78302;SDS011;67559;24.140;-110.296;2023-11-19T12:08:12;10.10;;;2.85;;
78302;SDS011;67559;24.140;-110.296;2023-11-19T12:10:44;6.70;;;2.10;;
78302;SDS011;67559;24.140;-110.296;2023-11-19T12:13:16;9.30;;;2.10;;
78302;SDS011;67559;24.140;-110.296;2023-11-19T12:18:30;5.80;;;1.85;;
78302;SDS011;67559;24.140;-110.296;2023-11-19T12:21:29;6.10;;;1.42;;
78302;SDS011;67559;24.140;-110.296;2023-11-19T12:24:25;8.52;;;1.52;;
78302;SDS011;67559;24.140;-110.296;2023-11-19T12:27:26;5.93;;;1.73;;
78302;SDS011;67559;24.140;-110.296;2023-11-19T12:29:54;7.20;;;1.55;;
78302;SDS011;67559;24.140;-110.296;2023-11-19T12:32:25;5.20;;;1.30;;
78302;SDS011;67559;24.140;-110.296;2023-11-19T12:34:55;7.57;;;1.45;;
78302;SDS011;67559;24.140;-110.296;2023-11-19T12:37:24;5.10;;;1.13;;
78302;SDS011;67559;24.140;-110.296;2023-11-19T12:39:54;10.50;;;1.67;;
78302;SDS011;67559;24.140;-110.296;2023-11-19T12:45:10;9.73;;;1.80;;
78302;SDS011;67559;24.140;-110.296;2023-11-19T12:47:40;9.00;;;1.40;;
78302;SDS011;67559;24.140;-110.296;2023-11-19T12:50:18;5.72;;;1.45;;
78302;SDS011;67559;24.140;-110.296;2023-11-19T12:53:01;8.35;;;1.25;;
78302;SDS011;67559;24.140;-110.296;2023-11-19T12:55:33;8.52;;;1.60;;
78302;SDS011;67559;24.140;-110.296;2023-11-19T12:58:02;7.40;;;1.45;;
78302;SDS011;67559;24.140;-110.296;2023-11-19T13:00:33;11.98;;;1.52;;
78302;SDS011;67559;24.140;-110.296;2023-11-19T13:03:03;10.18;;;1.70;;
78302;SDS011;67559;24.140;-110.296;2023-11-19T13:05:33;7.15;;;1.48;;
78302;SDS011;67559;24.140;-110.296;2023-11-19T13:08:06;6.15;;;1.38;;
78302;SDS011;67559;24.140;-110.296;2023-11-19T13:13:22;6.18;;;1.40;;
78302;SDS011;67559;24.140;-110.296;2023-11-19T13:15:52;9.32;;;1.65;;
78302;SDS011;67559;24.140;-110.296;2023-11-19T13:18:22;3.72;;;1.02;;
78302;SDS011;67559;24.140;-110.296;2023-11-19T13:20:52;11.38;;;1.80;;
78302;SDS011;67559;24.140;-110.296;2023-11-19T13:23:25;10.00;;;1.27;;
78302;SDS011;67559;24.140;-110.296;2023-11-19T13:26:13;11.23;;;1.48;;
78302;SDS011;67559;24.140;-110.296;2023-11-19T13:28:43;6.10;;;1.55;;
78302;SDS011;67559;24.140;-110.296;2023-11-19T13:31:13;24.88;;;2.83;;
78302;SDS011;67559;24.140;-110.296;2023-11-19T13:33:43;16.33;;;1.98;;
78302;SDS011;67559;24.140;-110.296;2023-11-19T13:36:13;11.52;;;1.38;;
78302;SDS011;67559;24.140;-110.296;2023-11-19T13:38:43;9.57;;;1.30;;
78302;SDS011;67559;24.140;-110.296;2023-11-19T13:41:14;12.00;;;1.55;;
78302;SDS011;67559;24.140;-110.296;2023-11-19T13:43:44;8.07;;;1.88;;
78302;SDS011;67559;24.140;-110.296;2023-11-19T13:46:14;7.30;;;1.60;;
78302;SDS011;67559;24.140;-110.296;2023-11-19T13:48:44;17.58;;;1.73;;
78302;SDS011;67559;24.140;-110.296;2023-11-19T13:51:15;9.20;;;1.50;;
78302;SDS011;67559;24.140;-110.296;2023-11-19T13:53:45;10.15;;;1.65;;
78302;SDS011;67559;24.140;-110.296;2023-11-19T13:56:15;9.38;;;2.33;;
78302;SDS011;67559;24.140;-110.296;2023-11-19T13:58:46;11.55;;;1.40;;
78302;SDS011;67559;24.140;-110.296;2023-11-19T14:01:16;9.60;;;1.80;;
78302;SDS011;67559;24.140;-110.296;2023-11-19T14:03:46;11.55;;;2.20;;
78302;SDS011;67559;24.140;-110.296;2023-11-19T14:06:16;8.48;;;1.90;;
78302;SDS011;67559;24.140;-110.296;2023-11-19T14:08:46;10.43;;;1.77;;
78302;SDS011;67559;24.140;-110.296;2023-11-19T14:11:16;8.63;;;1.65;;
78302;SDS011;67559;24.140;-110.296;2023-11-19T14:13:46;16.15;;;2.10;;
78302;SDS011;67559;24.140;-110.296;2023-11-19T14:16:16;9.05;;;1.50;;
78302;SDS011;67559;24.140;-110.296;2023-11-19T14:18:46;11.15;;;1.85;;
78302;SDS011;67559;24.140;-110.296;2023-11-19T14:21:16;14.55;;;2.20;;
78302;SDS011;67559;24.140;-110.296;2023-11-19T14:23:47;17.77;;;2.22;;
78302;SDS011;67559;24.140;-110.296;2023-11-19T14:26:16;11.48;;;1.98;;
78302;SDS011;67559;24.140;-110.296;2023-11-19T14:28:50;11.63;;;2.08;;
78302;SDS011;67559;24.140;-110.296;2023-11-19T14:31:20;13.70;;;1.80;;
78302;SDS011;67559;24.140;-110.296;2023-11-19T14:33:50;14.98;;;2.58;;
78302;SDS011;67559;24.140;-110.296;2023-11-19T14:36:20;16.52;;;1.85;;
78302;SDS011;67559;24.140;-110.296;2023-11-19T14:38:50;9.80;;;1.92;;
78302;SDS011;67559;24.140;-110.296;2023-11-19T14:41:20;8.85;;;1.50;;
78302;SDS011;67559;24.140;-110.296;2023-11-19T14:43:50;13.30;;;2.50;;
78302;SDS011;67559;24.140;-110.296;2023-11-19T14:46:51;11.52;;;2.00;;
78302;SDS011;67559;24.140;-110.296;2023-11-19T14:49:28;9.50;;;1.63;;
78302;SDS011;67559;24.140;-110.296;2023-11-19T14:51:58;15.55;;;2.65;;
78302;SDS011;67559;24.140;-110.296;2023-11-19T14:54:28;7.28;;;2.00;;
78302;SDS011;67559;24.140;-110.296;2023-11-19T14:56:58;15.05;;;3.10;;
78302;SDS011;67559;24.140;-110.296;2023-11-19T15:02:16;15.65;;;2.53;;
78302;SDS011;67559;24.140;-110.296;2023-11-19T15:04:46;12.55;;;2.67;;
78302;SDS011;67559;24.140;-110.296;2023-11-19T15:07:16;13.43;;;2.58;;
78302;SDS011;67559;24.140;-110.296;2023-11-19T15:09:46;8.88;;;2.05;;
78302;SDS011;67559;24.140;-110.296;2023-11-19T15:12:18;12.27;;;1.90;;
78302;SDS011;67559;24.140;-110.296;2023-11-19T15:14:50;10.85;;;1.92;;
78302;SDS011;67559;24.140;-110.296;2023-11-19T15:17:20;7.72;;;1.70;;
78302;SDS011;67559;24.140;-110.296;2023-11-19T15:19:49;11.98;;;1.85;;
78302;SDS011;67559;24.140;-110.296;2023-11-19T15:22:19;10.57;;;1.80;;
78302;SDS011;67559;24.140;-110.296;2023-11-19T15:24:49;7.80;;;2.25;;
78302;SDS011;67559;24.140;-110.296;2023-11-19T15:27:20;7.38;;;1.80;;